sensor_id;sensor_type;location;lat;lon;timestamp;pressure;altitude;pressure_sealevel;temperature;humidity
77333;BME280;66408;51.326;12.070;2023-01-29T00:02:02;102027.38;;;-0.86;68.42
77333;BME280;66408;51.326;12.070;2023-01-29T00:04:30;102030.03;;;-0.86;67.80
77333;BME280;66408;51.326;12.070;2023-01-29T00:06:57;102036.78;;;-0.90;68.27
77333;BME280;66408;51.326;12.070;2023-01-29T00:09:26;102027.31;;;-0.93;68.27
77333;BME280;66408;51.326;12.070;2023-01-29T00:11:53;102022.97;;;-0.94;68.10
77333;BME280;66408;51.326;12.070;2023-01-29T00:14:19;102024.00;;;-0.95;68.44
77333;BME280;66408;51.326;12.070;2023-01-29T00:16:46;102017.34;;;-0.99;68.07
77333;BME280;66408;51.326;12.070;2023-01-29T00:19:12;102014.50;;;-0.97;68.32
77333;BME280;66408;51.326;12.070;2023-01-29T00:21:39;102009.56;;;-1.00;68.50
77333;BME280;66408;51.326;12.070;2023-01-29T00:24:05;102010.75;;;-1.03;68.23
77333;BME280;66408;51.326;12.070;2023-01-29T00:26:32;102019.66;;;-1.11;68.83
77333;BME280;66408;51.326;12.070;2023-01-29T00:28:58;102019.22;;;-1.14;69.13
77333;BME280;66408;51.326;12.070;2023-01-29T00:31:28;102013.59;;;-1.19;69.36
77333;BME280;66408;51.326;12.070;2023-01-29T00:33:55;102018.59;;;-1.31;70.14
77333;BME280;66408;51.326;12.070;2023-01-29T00:36:22;102013.72;;;-1.27;69.86
77333;BME280;66408;51.326;12.070;2023-01-29T00:38:58;102016.03;;;-1.24;69.62
77333;BME280;66408;51.326;12.070;2023-01-29T00:41:28;102016.66;;;-1.37;69.69
77333;BME280;66408;51.326;12.070;2023-01-29T00:44:15;102015.84;;;-1.37;69.86
77333;BME280;66408;51.326;12.070;2023-01-29T00:47:02;102015.53;;;-1.42;70.33
77333;BME280;66408;51.326;12.070;2023-01-29T00:49:28;102008.91;;;-1.47;70.45
77333;BME280;66408;51.326;12.070;2023-01-29T00:51:58;102004.22;;;-1.59;70.49
77333;BME280;66408;51.326;12.070;2023-01-29T00:54:43;101999.00;;;-1.53;70.63
77333;BME280;66408;51.326;12.070;2023-01-29T00:57:09;101992.91;;;-1.61;70.72
77333;BME280;66408;51.326;12.070;2023-01-29T00:59:37;101991.63;;;-1.65;70.67
77333;BME280;66408;51.326;12.070;2023-01-29T01:02:03;101990.78;;;-1.66;70.54
77333;BME280;66408;51.326;12.070;2023-01-29T01:04:48;101994.16;;;-1.72;71.03
77333;BME280;66408;51.326;12.070;2023-01-29T01:07:15;101997.22;;;-1.75;70.45
77333;BME280;66408;51.326;12.070;2023-01-29T01:09:41;101988.44;;;-1.84;71.28
77333;BME280;66408;51.326;12.070;2023-01-29T01:12:27;101992.94;;;-1.84;71.32
77333;BME280;66408;51.326;12.070;2023-01-29T01:14:54;101995.00;;;-1.86;71.68
77333;BME280;66408;51.326;12.070;2023-01-29T01:17:23;101993.97;;;-1.85;71.13
77333;BME280;66408;51.326;12.070;2023-01-29T01:19:50;101990.19;;;-1.91;71.74
77333;BME280;66408;51.326;12.070;2023-01-29T01:22:16;101992.34;;;-1.86;70.92
77333;BME280;66408;51.326;12.070;2023-01-29T01:24:43;101976.78;;;-1.83;71.47
77333;BME280;66408;51.326;12.070;2023-01-29T01:27:09;101980.00;;;-1.87;70.99
77333;BME280;66408;51.326;12.070;2023-01-29T01:29:36;101976.13;;;-1.85;70.85
77333;BME280;66408;51.326;12.070;2023-01-29T01:32:02;101974.84;;;-1.89;71.33
77333;BME280;66408;51.326;12.070;2023-01-29T01:34:29;101961.06;;;-1.92;71.10
77333;BME280;66408;51.326;12.070;2023-01-29T01:36:55;101957.09;;;-1.96;71.04
77333;BME280;66408;51.326;12.070;2023-01-29T01:39:23;101956.81;;;-2.01;71.55
77333;BME280;66408;51.326;12.070;2023-01-29T01:41:51;101956.16;;;-2.03;71.43
77333;BME280;66408;51.326;12.070;2023-01-29T01:47:29;101958.91;;;-2.11;71.60
77333;BME280;66408;51.326;12.070;2023-01-29T01:50:00;101961.59;;;-2.11;71.41
77333;BME280;66408;51.326;12.070;2023-01-29T01:52:30;101966.09;;;-2.12;71.78
77333;BME280;66408;51.326;12.070;2023-01-29T01:54:58;101975.09;;;-2.13;71.30
77333;BME280;66408;51.326;12.070;2023-01-29T01:57:26;101978.19;;;-2.09;71.71
77333;BME280;66408;51.326;12.070;2023-01-29T02:00:09;101973.59;;;-2.15;71.62
77333;BME280;66408;51.326;12.070;2023-01-29T02:02:41;101970.00;;;-2.23;72.12
77333;BME280;66408;51.326;12.070;2023-01-29T02:05:28;101966.22;;;-2.28;72.41
77333;BME280;66408;51.326;12.070;2023-01-29T02:08:17;101971.19;;;-2.25;71.91
77333;BME280;66408;51.326;12.070;2023-01-29T02:11:05;101980.47;;;-2.21;72.21
77333;BME280;66408;51.326;12.070;2023-01-29T02:13:32;101964.69;;;-2.23;72.73
77333;BME280;66408;51.326;12.070;2023-01-29T02:15:58;101970.59;;;-2.12;72.20
77333;BME280;66408;51.326;12.070;2023-01-29T02:18:25;101969.84;;;-2.06;72.20
77333;BME280;66408;51.326;12.070;2023-01-29T02:23:59;101970.03;;;-2.08;71.81
77333;BME280;66408;51.326;12.070;2023-01-29T02:29:09;101954.13;;;-2.16;72.13
77333;BME280;66408;51.326;12.070;2023-01-29T02:35:34;101960.28;;;-2.15;71.92
77333;BME280;66408;51.326;12.070;2023-01-29T02:46:03;101977.09;;;-2.15;72.17
77333;BME280;66408;51.326;12.070;2023-01-29T02:48:38;101977.09;;;-2.15;71.83
77333;BME280;66408;51.326;12.070;2023-01-29T02:51:30;101978.28;;;-2.18;72.11
77333;BME280;66408;51.326;12.070;2023-01-29T02:54:07;101972.47;;;-2.21;71.78
77333;BME280;66408;51.326;12.070;2023-01-29T02:56:53;101966.31;;;-2.22;72.15
77333;BME280;66408;51.326;12.070;2023-01-29T02:59:34;101966.03;;;-2.27;72.24
77333;BME280;66408;51.326;12.070;2023-01-29T03:02:07;101966.88;;;-2.26;72.47
77333;BME280;66408;51.326;12.070;2023-01-29T03:04:40;101966.97;;;-2.20;72.01
77333;BME280;66408;51.326;12.070;2023-01-29T03:07:32;101953.28;;;-2.17;71.65
77333;BME280;66408;51.326;12.070;2023-01-29T03:10:22;101959.97;;;-2.21;72.21
77333;BME280;66408;51.326;12.070;2023-01-29T03:12:53;101956.97;;;-2.18;71.99
77333;BME280;66408;51.326;12.070;2023-01-29T03:15:29;101954.22;;;-2.09;72.37
77333;BME280;66408;51.326;12.070;2023-01-29T03:18:16;101948.53;;;-2.06;71.79
77333;BME280;66408;51.326;12.070;2023-01-29T03:20:48;101939.53;;;-2.05;71.95
77333;BME280;66408;51.326;12.070;2023-01-29T03:23:21;101942.38;;;-2.07;71.99
77333;BME280;66408;51.326;12.070;2023-01-29T03:26:03;101949.66;;;-2.01;72.00
77333;BME280;66408;51.326;12.070;2023-01-29T03:28:50;101948.25;;;-1.97;71.21
77333;BME280;66408;51.326;12.070;2023-01-29T03:31:36;101951.22;;;-1.92;70.79
77333;BME280;66408;51.326;12.070;2023-01-29T03:34:22;101948.75;;;-1.93;71.38
77333;BME280;66408;51.326;12.070;2023-01-29T03:37:04;101944.25;;;-1.93;71.52
77333;BME280;66408;51.326;12.070;2023-01-29T03:39:34;101941.75;;;-1.94;70.70
77333;BME280;66408;51.326;12.070;2023-01-29T03:47:23;101959.31;;;-1.85;71.38
77333;BME280;66408;51.326;12.070;2023-01-29T03:49:55;101942.69;;;-1.87;71.05
77333;BME280;66408;51.326;12.070;2023-01-29T03:52:28;101949.38;;;-1.91;71.42
77333;BME280;66408;51.326;12.070;2023-01-29T03:57:56;101944.59;;;-1.96;71.45
77333;BME280;66408;51.326;12.070;2023-01-29T04:00:53;101957.56;;;-1.93;71.37
77333;BME280;66408;51.326;12.070;2023-01-29T04:03:30;101954.97;;;-2.01;71.65
77333;BME280;66408;51.326;12.070;2023-01-29T04:06:04;101944.78;;;-1.97;71.70
77333;BME280;66408;51.326;12.070;2023-01-29T04:08:50;101952.19;;;-2.07;71.81
77333;BME280;66408;51.326;12.070;2023-01-29T04:11:21;101947.59;;;-2.13;72.19
77333;BME280;66408;51.326;12.070;2023-01-29T04:13:48;101949.53;;;-2.07;71.84
77333;BME280;66408;51.326;12.070;2023-01-29T04:16:23;101938.59;;;-2.12;71.46
77333;BME280;66408;51.326;12.070;2023-01-29T04:18:52;101934.09;;;-2.12;71.82
77333;BME280;66408;51.326;12.070;2023-01-29T04:21:20;101932.91;;;-2.09;71.90
77333;BME280;66408;51.326;12.070;2023-01-29T04:23:46;101925.56;;;-2.07;71.62
77333;BME280;66408;51.326;12.070;2023-01-29T04:29:20;101925.47;;;-2.14;71.91
77333;BME280;66408;51.326;12.070;2023-01-29T04:32:15;101919.78;;;-2.11;71.52
77333;BME280;66408;51.326;12.070;2023-01-29T04:37:41;101918.84;;;-2.18;71.87
77333;BME280;66408;51.326;12.070;2023-01-29T04:40:27;101910.47;;;-2.15;71.26
77333;BME280;66408;51.326;12.070;2023-01-29T04:43:03;101911.41;;;-2.23;71.56
77333;BME280;66408;51.326;12.070;2023-01-29T04:51:04;101894.38;;;-2.36;72.79
77333;BME280;66408;51.326;12.070;2023-01-29T04:54:48;101884.16;;;-2.33;72.24
77333;BME280;66408;51.326;12.070;2023-01-29T04:56:54;101892.16;;;-2.33;72.55
77333;BME280;66408;51.326;12.070;2023-01-29T04:59:31;101880.50;;;-2.32;73.15
77333;BME280;66408;51.326;12.070;2023-01-29T05:02:00;101882.34;;;-2.32;72.56
77333;BME280;66408;51.326;12.070;2023-01-29T05:04:30;101879.75;;;-2.40;72.24
77333;BME280;66408;51.326;12.070;2023-01-29T05:07:01;101869.19;;;-2.48;73.35
77333;BME280;66408;51.326;12.070;2023-01-29T05:09:30;101867.63;;;-2.43;73.55
77333;BME280;66408;51.326;12.070;2023-01-29T05:11:59;101862.88;;;-2.33;73.72
77333;BME280;66408;51.326;12.070;2023-01-29T05:14:27;101866.66;;;-2.27;73.63
77333;BME280;66408;51.326;12.070;2023-01-29T05:16:56;101864.63;;;-2.25;73.99
77333;BME280;66408;51.326;12.070;2023-01-29T05:19:24;101862.88;;;-2.33;74.29
77333;BME280;66408;51.326;12.070;2023-01-29T05:21:51;101862.88;;;-2.33;74.60
77333;BME280;66408;51.326;12.070;2023-01-29T05:24:20;101861.69;;;-2.30;74.32
77333;BME280;66408;51.326;12.070;2023-01-29T05:26:49;101865.47;;;-2.25;74.77
77333;BME280;66408;51.326;12.070;2023-01-29T05:29:34;101863.19;;;-2.13;73.58
77333;BME280;66408;51.326;12.070;2023-01-29T05:32:01;101861.16;;;-2.11;74.00
77333;BME280;66408;51.326;12.070;2023-01-29T05:34:29;101861.06;;;-2.18;74.18
77333;BME280;66408;51.326;12.070;2023-01-29T05:36:55;101846.53;;;-2.15;74.10
77333;BME280;66408;51.326;12.070;2023-01-29T05:39:22;101847.56;;;-2.16;74.61
77333;BME280;66408;51.326;12.070;2023-01-29T05:41:48;101839.38;;;-2.14;74.79
77333;BME280;66408;51.326;12.070;2023-01-29T05:44:15;101832.41;;;-2.15;75.01
77333;BME280;66408;51.326;12.070;2023-01-29T05:46:41;101831.28;;;-2.06;74.29
77333;BME280;66408;51.326;12.070;2023-01-29T05:49:09;101835.44;;;-2.04;74.36
77333;BME280;66408;51.326;12.070;2023-01-29T05:51:35;101833.06;;;-1.99;74.10
77333;BME280;66408;51.326;12.070;2023-01-29T05:54:02;101841.06;;;-1.99;74.21
77333;BME280;66408;51.326;12.070;2023-01-29T05:56:28;101847.56;;;-2.01;74.32
77333;BME280;66408;51.326;12.070;2023-01-29T05:58:55;101844.63;;;-1.92;74.23
77333;BME280;66408;51.326;12.070;2023-01-29T06:01:23;101843.97;;;-1.94;74.06
77333;BME280;66408;51.326;12.070;2023-01-29T06:03:50;101847.09;;;-1.90;73.91
77333;BME280;66408;51.326;12.070;2023-01-29T06:06:17;101845.09;;;-1.88;73.77
77333;BME280;66408;51.326;12.070;2023-01-29T06:08:43;101847.66;;;-1.80;73.88
77333;BME280;66408;51.326;12.070;2023-01-29T06:11:11;101843.59;;;-1.76;73.79
77333;BME280;66408;51.326;12.070;2023-01-29T06:13:38;101839.81;;;-1.82;73.52
77333;BME280;66408;51.326;12.070;2023-01-29T06:16:09;101844.91;;;-1.87;74.50
77333;BME280;66408;51.326;12.070;2023-01-29T06:18:36;101843.91;;;-1.86;74.28
77333;BME280;66408;51.326;12.070;2023-01-29T06:21:05;101857.66;;;-1.82;74.78
77333;BME280;66408;51.326;12.070;2023-01-29T06:23:32;101860.44;;;-1.75;74.55
77333;BME280;66408;51.326;12.070;2023-01-29T06:26:00;101863.34;;;-1.70;74.20
77333;BME280;66408;51.326;12.070;2023-01-29T06:28:27;101866.84;;;-1.70;73.97
77333;BME280;66408;51.326;12.070;2023-01-29T06:31:01;101890.59;;;-1.75;74.08
77333;BME280;66408;51.326;12.070;2023-01-29T06:33:48;101880.19;;;-1.70;74.66
77333;BME280;66408;51.326;12.070;2023-01-29T06:36:14;101883.13;;;-1.65;73.93
77333;BME280;66408;51.326;12.070;2023-01-29T06:38:41;101891.00;;;-1.57;73.70
77333;BME280;66408;51.326;12.070;2023-01-29T06:41:09;101889.00;;;-1.55;73.37
77333;BME280;66408;51.326;12.070;2023-01-29T06:43:37;101896.63;;;-1.52;73.76
77333;BME280;66408;51.326;12.070;2023-01-29T06:46:06;101901.78;;;-1.50;73.32
77333;BME280;66408;51.326;12.070;2023-01-29T06:48:33;101912.72;;;-1.45;72.78
77333;BME280;66408;51.326;12.070;2023-01-29T06:51:03;101913.53;;;-1.45;72.09
77333;BME280;66408;51.326;12.070;2023-01-29T06:53:32;101912.34;;;-1.42;72.73
77333;BME280;66408;51.326;12.070;2023-01-29T06:55:59;101918.03;;;-1.45;72.62
77333;BME280;66408;51.326;12.070;2023-01-29T06:58:26;101922.19;;;-1.42;73.13
77333;BME280;66408;51.326;12.070;2023-01-29T07:00:52;101930.00;;;-1.41;72.76
77333;BME280;66408;51.326;12.070;2023-01-29T07:03:19;101930.66;;;-1.39;72.44
77333;BME280;66408;51.326;12.070;2023-01-29T07:05:52;101920.81;;;-1.38;72.61
77333;BME280;66408;51.326;12.070;2023-01-29T07:08:18;101929.66;;;-1.38;73.01
77333;BME280;66408;51.326;12.070;2023-01-29T07:10:48;101922.84;;;-1.40;72.32
77333;BME280;66408;51.326;12.070;2023-01-29T07:13:15;101940.38;;;-1.31;72.53
77333;BME280;66408;51.326;12.070;2023-01-29T07:15:42;101955.31;;;-1.37;72.41
77333;BME280;66408;51.326;12.070;2023-01-29T07:18:09;101952.06;;;-1.32;72.49
77333;BME280;66408;51.326;12.070;2023-01-29T07:20:39;101967.34;;;-1.26;72.52
77333;BME280;66408;51.326;12.070;2023-01-29T07:23:13;101963.03;;;-1.27;72.29
77333;BME280;66408;51.326;12.070;2023-01-29T07:25:40;101958.16;;;-1.24;72.29
77333;BME280;66408;51.326;12.070;2023-01-29T07:28:07;101948.91;;;-1.21;72.67
77333;BME280;66408;51.326;12.070;2023-01-29T07:30:34;101947.47;;;-1.24;72.30
77333;BME280;66408;51.326;12.070;2023-01-29T07:33:05;101953.53;;;-1.15;72.28
77333;BME280;66408;51.326;12.070;2023-01-29T07:35:41;101940.56;;;-1.18;72.38
77333;BME280;66408;51.326;12.070;2023-01-29T07:38:09;101938.06;;;-1.20;72.41
77333;BME280;66408;51.326;12.070;2023-01-29T07:40:36;101927.22;;;-1.18;72.73
77333;BME280;66408;51.326;12.070;2023-01-29T07:43:05;101916.53;;;-1.18;73.13
77333;BME280;66408;51.326;12.070;2023-01-29T07:45:35;101922.34;;;-1.15;73.17
77333;BME280;66408;51.326;12.070;2023-01-29T07:48:03;101921.56;;;-1.09;72.72
77333;BME280;66408;51.326;12.070;2023-01-29T07:50:31;101914.38;;;-1.08;72.16
77333;BME280;66408;51.326;12.070;2023-01-29T07:52:58;101906.28;;;-1.00;72.51
77333;BME280;66408;51.326;12.070;2023-01-29T07:55:25;101912.06;;;-0.96;72.91
77333;BME280;66408;51.326;12.070;2023-01-29T07:58:00;101910.22;;;-0.96;72.42
77333;BME280;66408;51.326;12.070;2023-01-29T08:00:28;101897.13;;;-0.91;72.04
77333;BME280;66408;51.326;12.070;2023-01-29T08:03:04;101890.78;;;-0.90;72.25
77333;BME280;66408;51.326;12.070;2023-01-29T08:05:31;101884.84;;;-0.85;72.63
77333;BME280;66408;51.326;12.070;2023-01-29T08:07:58;101879.53;;;-0.85;72.89
77333;BME280;66408;51.326;12.070;2023-01-29T08:10:33;101878.31;;;-0.83;72.39
77333;BME280;66408;51.326;12.070;2023-01-29T08:13:01;101881.00;;;-0.83;72.48
77333;BME280;66408;51.326;12.070;2023-01-29T08:15:28;101871.44;;;-0.70;71.51
77333;BME280;66408;51.326;12.070;2023-01-29T08:17:55;101881.94;;;-0.69;72.23
77333;BME280;66408;51.326;12.070;2023-01-29T08:20:24;101870.06;;;-0.66;72.03
77333;BME280;66408;51.326;12.070;2023-01-29T08:23:01;101873.19;;;-0.63;71.82
77333;BME280;66408;51.326;12.070;2023-01-29T08:25:28;101882.59;;;-0.67;71.84
77333;BME280;66408;51.326;12.070;2023-01-29T08:27:56;101888.50;;;-0.72;72.46
77333;BME280;66408;51.326;12.070;2023-01-29T08:30:25;101883.78;;;-0.69;72.69
77333;BME280;66408;51.326;12.070;2023-01-29T08:32:51;101888.75;;;-0.66;72.72
77333;BME280;66408;51.326;12.070;2023-01-29T08:35:18;101887.97;;;-0.60;72.55
77333;BME280;66408;51.326;12.070;2023-01-29T08:37:59;101887.22;;;-0.54;72.66
77333;BME280;66408;51.326;12.070;2023-01-29T08:40:28;101892.56;;;-0.54;72.89
77333;BME280;66408;51.326;12.070;2023-01-29T08:42:58;101901.63;;;-0.49;72.51
77333;BME280;66408;51.326;12.070;2023-01-29T08:45:28;101898.53;;;-0.52;72.64
77333;BME280;66408;51.326;12.070;2023-01-29T08:47:55;101902.22;;;-0.53;72.43
77333;BME280;66408;51.326;12.070;2023-01-29T08:50:22;101904.75;;;-0.45;72.67
77333;BME280;66408;51.326;12.070;2023-01-29T08:52:48;101921.81;;;-0.46;72.67
77333;BME280;66408;51.326;12.070;2023-01-29T08:55:15;101905.78;;;-0.46;72.73
77333;BME280;66408;51.326;12.070;2023-01-29T08:57:41;101908.34;;;-0.38;73.04
77333;BME280;66408;51.326;12.070;2023-01-29T09:00:08;101900.94;;;-0.36;73.02
77333;BME280;66408;51.326;12.070;2023-01-29T09:02:36;101894.63;;;-0.28;72.17
77333;BME280;66408;51.326;12.070;2023-01-29T09:05:03;101894.25;;;-0.25;72.72
77333;BME280;66408;51.326;12.070;2023-01-29T09:07:30;101888.66;;;-0.30;72.52
77333;BME280;66408;51.326;12.070;2023-01-29T09:09:57;101897.31;;;-0.28;73.13
77333;BME280;66408;51.326;12.070;2023-01-29T09:12:23;101895.47;;;-0.28;72.88
77333;BME280;66408;51.326;12.070;2023-01-29T09:14:50;101890.94;;;-0.27;73.13
77333;BME280;66408;51.326;12.070;2023-01-29T09:17:16;101888.47;;;-0.29;73.28
77333;BME280;66408;51.326;12.070;2023-01-29T09:19:43;101873.34;;;-0.15;72.92
77333;BME280;66408;51.326;12.070;2023-01-29T09:22:09;101864.53;;;-0.09;72.05
77333;BME280;66408;51.326;12.070;2023-01-29T09:24:37;101864.06;;;-0.19;72.77
77333;BME280;66408;51.326;12.070;2023-01-29T09:27:04;101859.56;;;-0.12;73.05
77333;BME280;66408;51.326;12.070;2023-01-29T09:29:31;101843.16;;;-0.09;72.51
77333;BME280;66408;51.326;12.070;2023-01-29T09:32:02;101837.66;;;-0.01;72.73
77333;BME280;66408;51.326;12.070;2023-01-29T09:34:29;101847.38;;;0.07;72.92
77333;BME280;66408;51.326;12.070;2023-01-29T09:36:55;101854.84;;;0.18;72.33
77333;BME280;66408;51.326;12.070;2023-01-29T09:39:21;101852.41;;;0.23;72.06
77333;BME280;66408;51.326;12.070;2023-01-29T09:45:03;101856.94;;;0.22;71.75
77333;BME280;66408;51.326;12.070;2023-01-29T09:47:33;101862.75;;;0.32;72.02
77333;BME280;66408;51.326;12.070;2023-01-29T09:50:14;101856.16;;;0.35;72.25
77333;BME280;66408;51.326;12.070;2023-01-29T09:52:50;101854.72;;;0.39;71.96
77333;BME280;66408;51.326;12.070;2023-01-29T09:55:30;101838.91;;;0.44;71.81
77333;BME280;66408;51.326;12.070;2023-01-29T09:58:35;101839.16;;;0.49;71.46
77333;BME280;66408;51.326;12.070;2023-01-29T10:01:12;101839.50;;;0.40;70.89
77333;BME280;66408;51.326;12.070;2023-01-29T10:12:21;101816.72;;;0.57;70.92
77333;BME280;66408;51.326;12.070;2023-01-29T10:18:06;101816.75;;;0.63;70.91
77333;BME280;66408;51.326;12.070;2023-01-29T10:23:46;101804.81;;;0.66;70.10
77333;BME280;66408;51.326;12.070;2023-01-29T10:26:15;101796.59;;;0.67;70.43
77333;BME280;66408;51.326;12.070;2023-01-29T10:28:46;101796.19;;;0.70;70.22
77333;BME280;66408;51.326;12.070;2023-01-29T10:31:29;101791.47;;;0.73;70.02
77333;BME280;66408;51.326;12.070;2023-01-29T10:34:26;101795.56;;;0.68;70.21
77333;BME280;66408;51.326;12.070;2023-01-29T10:36:55;101800.91;;;0.75;69.83
77333;BME280;66408;51.326;12.070;2023-01-29T10:39:25;101795.78;;;0.74;70.21
77333;BME280;66408;51.326;12.070;2023-01-29T10:47:38;101782.81;;;0.70;69.97
77333;BME280;66408;51.326;12.070;2023-01-29T11:00:38;101773.56;;;0.99;68.68
77333;BME280;66408;51.326;12.070;2023-01-29T11:06:15;101763.69;;;1.00;69.38
77333;BME280;66408;51.326;12.070;2023-01-29T11:11:30;101750.72;;;1.17;68.44
77333;BME280;66408;51.326;12.070;2023-01-29T11:14:01;101745.97;;;1.05;68.80
77333;BME280;66408;51.326;12.070;2023-01-29T11:16:42;101737.13;;;1.18;69.14
77333;BME280;66408;51.326;12.070;2023-01-29T11:19:09;101732.56;;;1.25;68.32
77333;BME280;66408;51.326;12.070;2023-01-29T11:21:56;101726.38;;;1.31;68.17
77333;BME280;66408;51.326;12.070;2023-01-29T11:24:23;101727.81;;;1.40;67.33
77333;BME280;66408;51.326;12.070;2023-01-29T11:26:53;101730.50;;;1.40;66.82
77333;BME280;66408;51.326;12.070;2023-01-29T11:29:33;101728.25;;;1.31;66.89
77333;BME280;66408;51.326;12.070;2023-01-29T11:32:24;101723.28;;;1.41;66.59
77333;BME280;66408;51.326;12.070;2023-01-29T11:37:37;101719.94;;;1.59;66.82
77333;BME280;66408;51.326;12.070;2023-01-29T11:40:35;101725.50;;;1.64;67.15
77333;BME280;66408;51.326;12.070;2023-01-29T11:46:01;101711.00;;;1.78;66.13
77333;BME280;66408;51.326;12.070;2023-01-29T11:48:48;101707.06;;;1.87;65.93
77333;BME280;66408;51.326;12.070;2023-01-29T11:51:31;101689.97;;;1.82;65.69
77333;BME280;66408;51.326;12.070;2023-01-29T11:54:03;101687.25;;;1.88;65.55
77333;BME280;66408;51.326;12.070;2023-01-29T11:56:40;101680.69;;;1.84;65.44
77333;BME280;66408;51.326;12.070;2023-01-29T12:04:53;101676.19;;;2.16;64.82
77333;BME280;66408;51.326;12.070;2023-01-29T12:07:22;101668.97;;;2.16;64.57
77333;BME280;66408;51.326;12.070;2023-01-29T12:09:58;101654.13;;;2.45;64.17
77333;BME280;66408;51.326;12.070;2023-01-29T12:12:28;101652.72;;;2.68;64.60
77333;BME280;66408;51.326;12.070;2023-01-29T12:17:36;101649.94;;;2.81;62.78
77333;BME280;66408;51.326;12.070;2023-01-29T12:20:10;101645.38;;;2.81;62.82
77333;BME280;66408;51.326;12.070;2023-01-29T12:22:44;101638.25;;;2.94;63.36
77333;BME280;66408;51.326;12.070;2023-01-29T12:25:24;101632.56;;;3.02;62.52
77333;BME280;66408;51.326;12.070;2023-01-29T12:28:02;101620.34;;;3.06;62.17
77333;BME280;66408;51.326;12.070;2023-01-29T12:31:07;101610.22;;;3.26;62.05
77333;BME280;66408;51.326;12.070;2023-01-29T12:33:56;101603.25;;;3.37;61.72
77333;BME280;66408;51.326;12.070;2023-01-29T12:36:27;101606.50;;;3.45;61.45
77333;BME280;66408;51.326;12.070;2023-01-29T12:38:57;101606.50;;;3.75;61.02
77333;BME280;66408;51.326;12.070;2023-01-29T12:44:35;101602.63;;;4.01;59.99
77333;BME280;66408;51.326;12.070;2023-01-29T12:47:21;101609.69;;;4.14;60.28
77333;BME280;66408;51.326;12.070;2023-01-29T12:49:56;101599.88;;;4.08;59.57
77333;BME280;66408;51.326;12.070;2023-01-29T12:52:47;101601.13;;;4.05;60.05
77333;BME280;66408;51.326;12.070;2023-01-29T12:55:21;101603.75;;;3.82;59.96
77333;BME280;66408;51.326;12.070;2023-01-29T12:57:58;101595.84;;;3.69;60.80
77333;BME280;66408;51.326;12.070;2023-01-29T13:00:31;101594.81;;;3.51;60.91
77333;BME280;66408;51.326;12.070;2023-01-29T13:05:50;101596.91;;;3.13;62.46
77333;BME280;66408;51.326;12.070;2023-01-29T13:08:43;101594.06;;;2.89;63.97
77333;BME280;66408;51.326;12.070;2023-01-29T13:13:58;101583.59;;;2.81;63.93
77333;BME280;66408;51.326;12.070;2023-01-29T13:16:34;101572.38;;;2.66;65.00
77333;BME280;66408;51.326;12.070;2023-01-29T13:19:08;101565.88;;;2.56;64.00
77333;BME280;66408;51.326;12.070;2023-01-29T13:21:40;101558.69;;;2.49;64.37
77333;BME280;66408;51.326;12.070;2023-01-29T13:24:14;101550.03;;;2.47;64.44
77333;BME280;66408;51.326;12.070;2023-01-29T13:26:44;101551.13;;;2.40;65.17
77333;BME280;66408;51.326;12.070;2023-01-29T13:29:23;101543.72;;;2.35;65.09
77333;BME280;66408;51.326;12.070;2023-01-29T13:31:51;101547.13;;;2.24;65.09
77333;BME280;66408;51.326;12.070;2023-01-29T13:36:55;101552.22;;;2.07;66.00
77333;BME280;66408;51.326;12.070;2023-01-29T13:39:29;101540.50;;;2.02;65.24
77333;BME280;66408;51.326;12.070;2023-01-29T13:41:59;101540.91;;;2.05;66.43
77333;BME280;66408;51.326;12.070;2023-01-29T13:44:34;101532.66;;;2.00;66.70
77333;BME280;66408;51.326;12.070;2023-01-29T13:47:10;101526.25;;;2.01;66.54
77333;BME280;66408;51.326;12.070;2023-01-29T13:50:37;101525.44;;;2.01;65.87
77333;BME280;66408;51.326;12.070;2023-01-29T13:52:52;101529.16;;;2.00;65.56
77333;BME280;66408;51.326;12.070;2023-01-29T13:55:35;101529.44;;;1.92;66.31
77333;BME280;66408;51.326;12.070;2023-01-29T13:58:04;101539.94;;;1.93;66.42
77333;BME280;66408;51.326;12.070;2023-01-29T14:08:00;101549.75;;;1.74;67.54
77333;BME280;66408;51.326;12.070;2023-01-29T14:10:32;101555.97;;;1.68;67.98
77333;BME280;66408;51.326;12.070;2023-01-29T14:15:33;101556.13;;;1.73;67.73
77333;BME280;66408;51.326;12.070;2023-01-29T14:20:39;101558.81;;;1.73;67.89
77333;BME280;66408;51.326;12.070;2023-01-29T14:29:15;101566.06;;;1.73;68.00
77333;BME280;66408;51.326;12.070;2023-01-29T14:32:21;101555.09;;;1.74;68.30
77333;BME280;66408;51.326;12.070;2023-01-29T14:34:48;101555.50;;;1.78;68.83
77333;BME280;66408;51.326;12.070;2023-01-29T14:39:43;101556.13;;;1.80;67.73
77333;BME280;66408;51.326;12.070;2023-01-29T14:42:24;101540.88;;;1.74;67.52
77333;BME280;66408;51.326;12.070;2023-01-29T14:58:37;101529.72;;;1.46;67.98
77333;BME280;66408;51.326;12.070;2023-01-29T15:01:29;101529.31;;;1.42;68.52
77333;BME280;66408;51.326;12.070;2023-01-29T15:04:16;101524.59;;;1.37;68.93
77333;BME280;66408;51.326;12.070;2023-01-29T15:07:02;101530.00;;;1.31;69.13
77333;BME280;66408;51.326;12.070;2023-01-29T15:09:41;101525.44;;;1.31;68.69
77333;BME280;66408;51.326;12.070;2023-01-29T15:15:28;101511.69;;;1.21;68.70
77333;BME280;66408;51.326;12.070;2023-01-29T15:18:13;101515.41;;;1.20;69.24
77333;BME280;66408;51.326;12.070;2023-01-29T15:20:42;101515.41;;;1.14;69.58
77333;BME280;66408;51.326;12.070;2023-01-29T15:23:26;101513.75;;;1.19;69.65
77333;BME280;66408;51.326;12.070;2023-01-29T15:25:56;101511.91;;;1.13;70.38
77333;BME280;66408;51.326;12.070;2023-01-29T15:28:27;101519.13;;;1.19;69.92
77333;BME280;66408;51.326;12.070;2023-01-29T15:31:00;101504.09;;;1.18;69.49
77333;BME280;66408;51.326;12.070;2023-01-29T15:33:27;101509.66;;;1.17;69.72
77333;BME280;66408;51.326;12.070;2023-01-29T15:35:57;101502.84;;;1.14;69.87